Terminal Aerodrome Forecast
Issued by NWS St Louis, MO

Home | Current Version | Previous Version | Graphics & Text | Print | Product List | Glossary On
Versions: 1 2 3 4 5 6 7 8 9 10 11 12 13 14 15 16 17 18 19 20 21 22 23 24 25 26
000
FTUS43 KLSX 191902 AAA
TAFSTL
TAF AMD
KSTL 191902Z 1919/2024 36011G18KT P6SM BKN040
     FM192100 36010KT P6SM SCT045
     FM200100 VRB04KT P6SM SKC
     FM201700 09007KT P6SM SKC=

USA.gov is the U.S. government's official web portal to all federal, state and local government web resources and services.